LBPDLGKV

Guest
Details From LBPD - Plovdiv
To LGKV - Kavala Megas Alexandros
Flight Number -
Tags generated
Created
Modified
Stats Distance 71 nm / 131 km
Max Altitude 0 ft / 0 m
Waypoints 3
Social Downloads 0
Likes 0
Share VATSIM

Download

Looking for another format? Having issues loading an existing format? Contact us
Advertisement - Login to hide

Notes

Basic altitude profile: - Ascent Rate: 2500ft/min - Ascent Speed: 250kts - Cruise Altitude: 35000ft - Cruise Speed: 420kts - Descent Rate: 1500ft/min - Descent Speed: 250kts Options: - Use NATs: yes - Use PACOTS: yes - Use low airways: yes - Use high airways: yes

Route

LBPD KPL LGKV

ID Type Via Altitude Latitude Longitude Leg Dist Tot Dist Heading (true) Name
O LBPD APT - 0 ft / 0 m 42.06786˚ 24.85081˚ - 0 nm - Plovdiv
KPL VOR - 0 ft / 0 m 40.91185˚ 24.61409˚ 70 nm 70 nm 189° / 189° KAVALA VOR-DME
O LGKV APT - 0 ft / 0 m 40.91478˚ 24.61893˚ 0 nm 70 nm 51° / 51° Kavala Megas Alexandros

Altitude Profile

Advertisement - Login to hide

LBPD

Details ICAO LBPD (PDV)
Name Plovdiv
Region Bulgaria
Timezone Europe/Sofia (UTC+2.0)
Stats Elevation 597 ft / 182 m (AMSL)
Location 42.067856° 24.850814°
Runways 1
Magnetic Variation 5.065° E

METAR

LBPD 111500Z AUTO 26004KT 230V290 9999 NCD 03/M01 Q1019 NOSIG

Decode

TAF

TAF LBPD 111100Z 1112/1212 10010KT CAVOK BECMG 1118/1120 VRB04KT 6000 NSC

Decode

Departure Runways

ID Width Length Bearing (true) Bearing (mag) Surface Threshold Offset Overrun Length
12 164 ft / 50 m 8,200 ft / 2,500 m 127.33° 122.26° Asphalt 0 ft / 0 m 197 ft / 60 m
30 164 ft / 50 m 8,200 ft / 2,500 m 307.35° 302.28° Asphalt 0 ft / 0 m 295 ft / 90 m

LGKV

Details ICAO LGKV (KVA)
Name Kavala Megas Alexandros
Region Greece
Timezone Europe/Athens (UTC+2.0)
Stats Elevation 18 ft / 5 m (AMSL)
Location 40.914780° 24.618932°
Runways 2
Magnetic Variation 4.892° E

METAR

LGKV 111450Z 25005KT 9999 FEW020 11/05 Q1020

Decode

TAF

Not found

Destination Runways

ID Width Length Bearing (true) Bearing (mag) Surface Threshold Offset Overrun Length
05L 100 ft / 30 m 9,833 ft / 2,997 m 55.25° 50.36° Asphalt 0 ft / 0 m 930 ft / 283 m
05R 150 ft / 46 m 9,833 ft / 2,997 m 55.25° 50.36° Asphalt 0 ft / 0 m 930 ft / 283 m
23L 150 ft / 46 m 9,833 ft / 2,997 m 235.27° 230.38° Asphalt 0 ft / 0 m 930 ft / 283 m
23R 100 ft / 30 m 9,833 ft / 2,997 m 235.27° 230.38° Asphalt 0 ft / 0 m 930 ft / 283 m